sensor_id;sensor_type;location;lat;lon;timestamp;P1;durP1;ratioP1;P2;durP2;ratioP2
44328;SDS011;30039;51.462;6.892;2023-07-29T00:00:02;4.15;;;1.38;;
44328;SDS011;30039;51.462;6.892;2023-07-29T00:02:48;2.88;;;1.40;;
44328;SDS011;30039;51.462;6.892;2023-07-29T00:05:34;4.88;;;1.70;;
44328;SDS011;30039;51.462;6.892;2023-07-29T00:08:19;2.03;;;1.33;;
44328;SDS011;30039;51.462;6.892;2023-07-29T00:11:05;2.80;;;1.30;;
44328;SDS011;30039;51.462;6.892;2023-07-29T00:13:51;3.30;;;1.48;;
44328;SDS011;30039;51.462;6.892;2023-07-29T00:16:37;1.92;;;1.55;;
44328;SDS011;30039;51.462;6.892;2023-07-29T00:19:23;2.22;;;1.33;;
44328;SDS011;30039;51.462;6.892;2023-07-29T00:22:09;2.88;;;1.40;;
44328;SDS011;30039;51.462;6.892;2023-07-29T00:24:54;2.40;;;1.52;;
44328;SDS011;30039;51.462;6.892;2023-07-29T00:27:41;2.00;;;1.50;;
44328;SDS011;30039;51.462;6.892;2023-07-29T00:30:27;2.28;;;1.65;;
44328;SDS011;30039;51.462;6.892;2023-07-29T00:33:13;2.60;;;1.60;;
44328;SDS011;30039;51.462;6.892;2023-07-29T00:35:58;2.88;;;1.50;;
44328;SDS011;30039;51.462;6.892;2023-07-29T00:38:47;2.75;;;1.90;;
44328;SDS011;30039;51.462;6.892;2023-07-29T00:41:32;2.42;;;1.55;;
44328;SDS011;30039;51.462;6.892;2023-07-29T00:44:18;6.00;;;1.80;;
44328;SDS011;30039;51.462;6.892;2023-07-29T00:47:04;2.42;;;1.67;;
44328;SDS011;30039;51.462;6.892;2023-07-29T00:49:51;3.28;;;1.60;;
44328;SDS011;30039;51.462;6.892;2023-07-29T00:52:36;3.60;;;1.77;;
44328;SDS011;30039;51.462;6.892;2023-07-29T00:55:22;2.22;;;1.45;;
44328;SDS011;30039;51.462;6.892;2023-07-29T00:58:08;2.47;;;1.52;;
44328;SDS011;30039;51.462;6.892;2023-07-29T01:00:54;5.70;;;1.83;;
44328;SDS011;30039;51.462;6.892;2023-07-29T01:03:43;2.55;;;1.70;;
44328;SDS011;30039;51.462;6.892;2023-07-29T01:15:01;1.65;;;1.40;;
44328;SDS011;30039;51.462;6.892;2023-07-29T01:17:52;2.80;;;1.60;;
44328;SDS011;30039;51.462;6.892;2023-07-29T01:20:40;4.43;;;1.88;;
44328;SDS011;30039;51.462;6.892;2023-07-29T01:23:28;2.45;;;1.73;;
44328;SDS011;30039;51.462;6.892;2023-07-29T01:26:14;6.20;;;1.80;;
44328;SDS011;30039;51.462;6.892;2023-07-29T01:29:00;2.53;;;1.60;;
44328;SDS011;30039;51.462;6.892;2023-07-29T01:31:45;3.15;;;1.95;;
44328;SDS011;30039;51.462;6.892;2023-07-29T01:34:35;2.75;;;1.80;;
44328;SDS011;30039;51.462;6.892;2023-07-29T01:37:25;2.72;;;1.52;;
44328;SDS011;30039;51.462;6.892;2023-07-29T01:40:11;2.83;;;1.80;;
44328;SDS011;30039;51.462;6.892;2023-07-29T01:42:57;2.22;;;1.58;;
44328;SDS011;30039;51.462;6.892;2023-07-29T01:45:43;4.90;;;1.35;;
44328;SDS011;30039;51.462;6.892;2023-07-29T01:48:28;4.82;;;1.60;;
44328;SDS011;30039;51.462;6.892;2023-07-29T01:51:15;3.67;;;1.90;;
44328;SDS011;30039;51.462;6.892;2023-07-29T01:54:01;2.53;;;1.73;;
44328;SDS011;30039;51.462;6.892;2023-07-29T01:56:47;2.55;;;1.73;;
44328;SDS011;30039;51.462;6.892;2023-07-29T01:59:32;3.17;;;1.70;;
44328;SDS011;30039;51.462;6.892;2023-07-29T02:02:18;3.42;;;1.92;;
44328;SDS011;30039;51.462;6.892;2023-07-29T02:05:04;4.93;;;1.92;;
44328;SDS011;30039;51.462;6.892;2023-07-29T02:07:49;3.15;;;1.60;;
44328;SDS011;30039;51.462;6.892;2023-07-29T02:10:35;2.15;;;1.35;;
44328;SDS011;30039;51.462;6.892;2023-07-29T02:13:21;1.90;;;1.58;;
44328;SDS011;30039;51.462;6.892;2023-07-29T02:16:06;3.28;;;1.77;;
44328;SDS011;30039;51.462;6.892;2023-07-29T02:18:52;2.45;;;1.67;;
44328;SDS011;30039;51.462;6.892;2023-07-29T02:21:37;4.30;;;1.90;;
44328;SDS011;30039;51.462;6.892;2023-07-29T02:24:23;2.50;;;1.77;;
44328;SDS011;30039;51.462;6.892;2023-07-29T02:27:09;3.47;;;1.83;;
44328;SDS011;30039;51.462;6.892;2023-07-29T02:29:54;2.78;;;1.67;;
44328;SDS011;30039;51.462;6.892;2023-07-29T02:32:40;2.67;;;1.77;;
44328;SDS011;30039;51.462;6.892;2023-07-29T02:35:25;4.20;;;1.63;;
44328;SDS011;30039;51.462;6.892;2023-07-29T02:38:11;2.65;;;1.90;;
44328;SDS011;30039;51.462;6.892;2023-07-29T02:40:57;3.80;;;1.63;;
44328;SDS011;30039;51.462;6.892;2023-07-29T02:43:51;2.10;;;1.70;;
44328;SDS011;30039;51.462;6.892;2023-07-29T02:46:37;5.43;;;1.70;;
44328;SDS011;30039;51.462;6.892;2023-07-29T02:49:22;3.03;;;1.75;;
44328;SDS011;30039;51.462;6.892;2023-07-29T02:52:08;2.83;;;2.10;;
44328;SDS011;30039;51.462;6.892;2023-07-29T02:54:57;2.25;;;1.73;;
44328;SDS011;30039;51.462;6.892;2023-07-29T02:57:43;3.90;;;1.83;;
44328;SDS011;30039;51.462;6.892;2023-07-29T03:00:30;2.42;;;1.90;;
44328;SDS011;30039;51.462;6.892;2023-07-29T03:03:16;4.38;;;1.88;;
44328;SDS011;30039;51.462;6.892;2023-07-29T03:06:03;3.38;;;2.15;;
44328;SDS011;30039;51.462;6.892;2023-07-29T03:08:49;4.97;;;2.15;;
44328;SDS011;30039;51.462;6.892;2023-07-29T03:11:34;3.08;;;2.03;;
44328;SDS011;30039;51.462;6.892;2023-07-29T03:14:20;4.57;;;2.10;;
44328;SDS011;30039;51.462;6.892;2023-07-29T03:17:06;3.63;;;1.75;;
44328;SDS011;30039;51.462;6.892;2023-07-29T03:19:52;3.28;;;1.88;;
44328;SDS011;30039;51.462;6.892;2023-07-29T03:22:37;4.45;;;2.22;;
44328;SDS011;30039;51.462;6.892;2023-07-29T03:25:23;4.05;;;2.00;;
44328;SDS011;30039;51.462;6.892;2023-07-29T03:28:08;3.22;;;2.08;;
44328;SDS011;30039;51.462;6.892;2023-07-29T03:30:55;4.55;;;2.20;;
44328;SDS011;30039;51.462;6.892;2023-07-29T03:33:40;3.05;;;2.40;;
44328;SDS011;30039;51.462;6.892;2023-07-29T03:36:26;3.58;;;2.45;;
44328;SDS011;30039;51.462;6.892;2023-07-29T03:39:12;4.68;;;2.40;;
44328;SDS011;30039;51.462;6.892;2023-07-29T03:41:57;3.78;;;2.33;;
44328;SDS011;30039;51.462;6.892;2023-07-29T03:44:43;7.65;;;2.60;;
44328;SDS011;30039;51.462;6.892;2023-07-29T03:47:29;3.17;;;2.40;;
44328;SDS011;30039;51.462;6.892;2023-07-29T03:50:14;5.45;;;2.60;;
44328;SDS011;30039;51.462;6.892;2023-07-29T03:53:00;5.18;;;2.55;;
44328;SDS011;30039;51.462;6.892;2023-07-29T03:55:45;4.70;;;2.50;;
44328;SDS011;30039;51.462;6.892;2023-07-29T03:58:32;6.95;;;3.00;;
44328;SDS011;30039;51.462;6.892;2023-07-29T04:01:18;7.60;;;2.60;;
44328;SDS011;30039;51.462;6.892;2023-07-29T04:04:03;4.78;;;2.67;;
44328;SDS011;30039;51.462;6.892;2023-07-29T04:06:49;6.38;;;2.75;;
44328;SDS011;30039;51.462;6.892;2023-07-29T04:09:35;4.47;;;2.90;;
44328;SDS011;30039;51.462;6.892;2023-07-29T04:12:20;5.32;;;2.38;;
44328;SDS011;30039;51.462;6.892;2023-07-29T04:15:07;4.30;;;2.28;;
44328;SDS011;30039;51.462;6.892;2023-07-29T04:17:52;3.67;;;2.25;;
44328;SDS011;30039;51.462;6.892;2023-07-29T04:20:38;3.03;;;2.20;;
44328;SDS011;30039;51.462;6.892;2023-07-29T04:23:24;4.03;;;2.15;;
44328;SDS011;30039;51.462;6.892;2023-07-29T04:26:09;4.05;;;2.40;;
44328;SDS011;30039;51.462;6.892;2023-07-29T04:28:55;4.47;;;2.03;;
44328;SDS011;30039;51.462;6.892;2023-07-29T04:31:40;2.40;;;1.63;;
44328;SDS011;30039;51.462;6.892;2023-07-29T04:34:26;2.47;;;1.80;;
44328;SDS011;30039;51.462;6.892;2023-07-29T04:37:11;2.63;;;2.03;;
44328;SDS011;30039;51.462;6.892;2023-07-29T04:39:57;2.67;;;1.88;;
44328;SDS011;30039;51.462;6.892;2023-07-29T04:42:43;3.92;;;2.05;;
44328;SDS011;30039;51.462;6.892;2023-07-29T04:45:28;3.65;;;2.30;;
44328;SDS011;30039;51.462;6.892;2023-07-29T04:48:14;4.50;;;2.50;;
44328;SDS011;30039;51.462;6.892;2023-07-29T04:51:00;5.30;;;2.83;;
44328;SDS011;30039;51.462;6.892;2023-07-29T04:53:46;4.07;;;2.55;;
44328;SDS011;30039;51.462;6.892;2023-07-29T04:56:31;5.53;;;2.72;;
44328;SDS011;30039;51.462;6.892;2023-07-29T04:59:17;4.38;;;3.40;;
44328;SDS011;30039;51.462;6.892;2023-07-29T05:02:02;6.60;;;3.30;;
44328;SDS011;30039;51.462;6.892;2023-07-29T05:04:48;4.25;;;3.20;;
44328;SDS011;30039;51.462;6.892;2023-07-29T05:07:34;6.20;;;3.53;;
44328;SDS011;30039;51.462;6.892;2023-07-29T05:10:19;6.40;;;3.85;;
44328;SDS011;30039;51.462;6.892;2023-07-29T05:13:06;6.40;;;3.88;;
44328;SDS011;30039;51.462;6.892;2023-07-29T05:15:52;5.65;;;3.92;;
44328;SDS011;30039;51.462;6.892;2023-07-29T05:18:38;6.05;;;4.18;;
44328;SDS011;30039;51.462;6.892;2023-07-29T05:21:23;4.90;;;4.10;;
44328;SDS011;30039;51.462;6.892;2023-07-29T05:24:09;6.38;;;3.83;;
44328;SDS011;30039;51.462;6.892;2023-07-29T05:26:54;6.72;;;4.85;;
44328;SDS011;30039;51.462;6.892;2023-07-29T05:29:40;8.40;;;5.00;;
44328;SDS011;30039;51.462;6.892;2023-07-29T05:32:25;7.88;;;5.00;;
44328;SDS011;30039;51.462;6.892;2023-07-29T05:35:11;6.25;;;5.10;;
44328;SDS011;30039;51.462;6.892;2023-07-29T05:37:57;7.43;;;4.63;;
44328;SDS011;30039;51.462;6.892;2023-07-29T05:40:43;4.82;;;3.70;;
44328;SDS011;30039;51.462;6.892;2023-07-29T05:43:28;4.00;;;3.00;;
44328;SDS011;30039;51.462;6.892;2023-07-29T05:46:14;4.53;;;2.20;;
44328;SDS011;30039;51.462;6.892;2023-07-29T05:49:00;3.28;;;2.15;;
44328;SDS011;30039;51.462;6.892;2023-07-29T05:51:45;4.85;;;2.00;;
44328;SDS011;30039;51.462;6.892;2023-07-29T05:54:31;4.43;;;2.30;;
44328;SDS011;30039;51.462;6.892;2023-07-29T05:57:17;5.10;;;2.65;;
44328;SDS011;30039;51.462;6.892;2023-07-29T06:00:02;4.22;;;2.10;;
44328;SDS011;30039;51.462;6.892;2023-07-29T06:02:48;3.55;;;2.20;;
44328;SDS011;30039;51.462;6.892;2023-07-29T06:05:34;4.53;;;2.00;;
44328;SDS011;30039;51.462;6.892;2023-07-29T06:08:19;3.20;;;2.00;;
44328;SDS011;30039;51.462;6.892;2023-07-29T06:11:05;3.50;;;1.77;;
44328;SDS011;30039;51.462;6.892;2023-07-29T06:13:53;3.35;;;1.63;;
44328;SDS011;30039;51.462;6.892;2023-07-29T06:16:39;4.18;;;1.90;;
44328;SDS011;30039;51.462;6.892;2023-07-29T06:19:24;2.47;;;1.52;;
44328;SDS011;30039;51.462;6.892;2023-07-29T06:22:10;2.40;;;1.50;;
44328;SDS011;30039;51.462;6.892;2023-07-29T06:24:56;2.90;;;1.80;;
44328;SDS011;30039;51.462;6.892;2023-07-29T06:27:41;7.25;;;2.00;;
44328;SDS011;30039;51.462;6.892;2023-07-29T06:30:27;2.65;;;1.92;;
44328;SDS011;30039;51.462;6.892;2023-07-29T06:33:12;2.63;;;1.70;;
44328;SDS011;30039;51.462;6.892;2023-07-29T06:35:58;4.82;;;1.88;;
44328;SDS011;30039;51.462;6.892;2023-07-29T06:38:43;3.28;;;1.80;;
44328;SDS011;30039;51.462;6.892;2023-07-29T06:41:30;3.58;;;1.73;;
44328;SDS011;30039;51.462;6.892;2023-07-29T06:44:16;2.92;;;1.50;;
44328;SDS011;30039;51.462;6.892;2023-07-29T06:47:01;2.17;;;1.48;;
44328;SDS011;30039;51.462;6.892;2023-07-29T06:49:47;10.05;;;1.75;;
44328;SDS011;30039;51.462;6.892;2023-07-29T06:52:32;1.95;;;1.38;;
44328;SDS011;30039;51.462;6.892;2023-07-29T06:55:18;2.63;;;1.58;;
44328;SDS011;30039;51.462;6.892;2023-07-29T06:58:04;3.28;;;1.63;;
44328;SDS011;30039;51.462;6.892;2023-07-29T07:00:49;2.28;;;1.45;;
44328;SDS011;30039;51.462;6.892;2023-07-29T07:03:35;2.67;;;1.60;;
44328;SDS011;30039;51.462;6.892;2023-07-29T07:06:21;3.22;;;1.20;;
44328;SDS011;30039;51.462;6.892;2023-07-29T07:09:07;2.28;;;1.40;;
44328;SDS011;30039;51.462;6.892;2023-07-29T07:11:53;2.80;;;1.65;;
44328;SDS011;30039;51.462;6.892;2023-07-29T07:14:38;2.25;;;1.42;;
44328;SDS011;30039;51.462;6.892;2023-07-29T07:17:24;2.67;;;1.60;;
44328;SDS011;30039;51.462;6.892;2023-07-29T07:20:10;2.10;;;1.30;;
44328;SDS011;30039;51.462;6.892;2023-07-29T07:22:55;1.70;;;1.10;;
44328;SDS011;30039;51.462;6.892;2023-07-29T07:25:41;2.00;;;1.27;;
44328;SDS011;30039;51.462;6.892;2023-07-29T07:28:30;1.42;;;1.00;;
44328;SDS011;30039;51.462;6.892;2023-07-29T07:31:16;2.03;;;1.00;;
44328;SDS011;30039;51.462;6.892;2023-07-29T07:34:01;2.00;;;1.10;;
44328;SDS011;30039;51.462;6.892;2023-07-29T07:36:50;3.42;;;1.20;;
44328;SDS011;30039;51.462;6.892;2023-07-29T07:39:36;4.00;;;1.23;;
44328;SDS011;30039;51.462;6.892;2023-07-29T07:42:21;1.52;;;1.10;;
44328;SDS011;30039;51.462;6.892;2023-07-29T07:45:07;1.10;;;0.90;;
44328;SDS011;30039;51.462;6.892;2023-07-29T07:47:52;1.80;;;1.20;;
44328;SDS011;30039;51.462;6.892;2023-07-29T07:50:41;1.88;;;1.13;;
44328;SDS011;30039;51.462;6.892;2023-07-29T07:53:26;3.25;;;1.10;;
44328;SDS011;30039;51.462;6.892;2023-07-29T07:56:12;1.48;;;1.00;;
44328;SDS011;30039;51.462;6.892;2023-07-29T07:58:58;1.48;;;1.02;;
44328;SDS011;30039;51.462;6.892;2023-07-29T08:01:43;1.80;;;0.90;;
44328;SDS011;30039;51.462;6.892;2023-07-29T08:04:29;2.65;;;0.90;;
44328;SDS011;30039;51.462;6.892;2023-07-29T08:07:14;3.53;;;1.13;;
44328;SDS011;30039;51.462;6.892;2023-07-29T08:10:00;1.63;;;1.00;;
44328;SDS011;30039;51.462;6.892;2023-07-29T08:12:46;1.40;;;1.00;;
44328;SDS011;30039;51.462;6.892;2023-07-29T08:15:31;1.17;;;0.90;;
44328;SDS011;30039;51.462;6.892;2023-07-29T08:18:17;2.65;;;1.00;;
44328;SDS011;30039;51.462;6.892;2023-07-29T08:21:02;0.88;;;0.85;;
44328;SDS011;30039;51.462;6.892;2023-07-29T08:23:48;1.42;;;0.80;;
44328;SDS011;30039;51.462;6.892;2023-07-29T08:26:34;1.15;;;0.80;;
44328;SDS011;30039;51.462;6.892;2023-07-29T08:29:20;0.90;;;0.73;;
44328;SDS011;30039;51.462;6.892;2023-07-29T08:32:05;0.88;;;0.75;;
44328;SDS011;30039;51.462;6.892;2023-07-29T08:34:51;2.67;;;0.90;;
44328;SDS011;30039;51.462;6.892;2023-07-29T08:37:37;0.93;;;0.80;;
44328;SDS011;30039;51.462;6.892;2023-07-29T08:40:23;1.83;;;0.90;;
44328;SDS011;30039;51.462;6.892;2023-07-29T08:43:10;2.17;;;1.10;;
44328;SDS011;30039;51.462;6.892;2023-07-29T08:45:57;1.02;;;0.90;;
44328;SDS011;30039;51.462;6.892;2023-07-29T08:48:43;1.55;;;0.80;;
44328;SDS011;30039;51.462;6.892;2023-07-29T08:51:29;1.45;;;0.98;;
44328;SDS011;30039;51.462;6.892;2023-07-29T08:54:17;1.10;;;0.80;;
44328;SDS011;30039;51.462;6.892;2023-07-29T08:57:02;0.95;;;0.82;;
44328;SDS011;30039;51.462;6.892;2023-07-29T08:59:48;1.60;;;0.95;;
44328;SDS011;30039;51.462;6.892;2023-07-29T09:02:34;2.53;;;1.15;;
44328;SDS011;30039;51.462;6.892;2023-07-29T09:05:22;1.20;;;0.90;;
44328;SDS011;30039;51.462;6.892;2023-07-29T09:08:08;1.85;;;1.13;;
44328;SDS011;30039;51.462;6.892;2023-07-29T09:10:54;1.73;;;1.05;;
44328;SDS011;30039;51.462;6.892;2023-07-29T09:13:40;2.33;;;1.33;;
44328;SDS011;30039;51.462;6.892;2023-07-29T09:16:26;2.72;;;1.42;;
44328;SDS011;30039;51.462;6.892;2023-07-29T09:19:11;1.58;;;1.10;;
44328;SDS011;30039;51.462;6.892;2023-07-29T09:21:57;3.22;;;1.70;;
44328;SDS011;30039;51.462;6.892;2023-07-29T09:24:43;0.95;;;0.82;;
44328;SDS011;30039;51.462;6.892;2023-07-29T09:27:29;1.35;;;1.10;;
44328;SDS011;30039;51.462;6.892;2023-07-29T09:30:17;1.30;;;0.90;;
44328;SDS011;30039;51.462;6.892;2023-07-29T09:33:02;1.05;;;0.90;;
44328;SDS011;30039;51.462;6.892;2023-07-29T09:35:48;2.03;;;0.98;;
44328;SDS011;30039;51.462;6.892;2023-07-29T09:38:34;2.40;;;1.00;;
44328;SDS011;30039;51.462;6.892;2023-07-29T09:41:19;1.42;;;1.00;;
44328;SDS011;30039;51.462;6.892;2023-07-29T09:44:07;2.63;;;1.00;;
44328;SDS011;30039;51.462;6.892;2023-07-29T09:46:52;1.60;;;1.00;;
44328;SDS011;30039;51.462;6.892;2023-07-29T09:49:39;1.77;;;1.05;;
44328;SDS011;30039;51.462;6.892;2023-07-29T09:52:24;1.52;;;0.90;;
44328;SDS011;30039;51.462;6.892;2023-07-29T09:55:13;1.70;;;1.00;;
44328;SDS011;30039;51.462;6.892;2023-07-29T09:58:02;1.88;;;1.10;;
44328;SDS011;30039;51.462;6.892;2023-07-29T10:00:49;1.80;;;1.17;;
44328;SDS011;30039;51.462;6.892;2023-07-29T10:03:35;3.55;;;1.20;;
44328;SDS011;30039;51.462;6.892;2023-07-29T10:06:21;1.00;;;0.90;;
44328;SDS011;30039;51.462;6.892;2023-07-29T10:09:07;2.17;;;1.00;;
44328;SDS011;30039;51.462;6.892;2023-07-29T10:11:52;3.03;;;1.23;;
44328;SDS011;30039;51.462;6.892;2023-07-29T10:14:38;1.60;;;1.10;;
44328;SDS011;30039;51.462;6.892;2023-07-29T10:17:24;1.77;;;0.93;;
44328;SDS011;30039;51.462;6.892;2023-07-29T10:20:11;3.58;;;1.30;;
44328;SDS011;30039;51.462;6.892;2023-07-29T10:22:59;2.17;;;1.23;;
44328;SDS011;30039;51.462;6.892;2023-07-29T10:26:04;2.47;;;1.25;;
44328;SDS011;30039;51.462;6.892;2023-07-29T10:28:50;2.50;;;1.10;;
44328;SDS011;30039;51.462;6.892;2023-07-29T10:31:38;1.70;;;1.00;;
44328;SDS011;30039;51.462;6.892;2023-07-29T10:34:25;1.77;;;1.00;;
44328;SDS011;30039;51.462;6.892;2023-07-29T10:37:12;1.27;;;0.90;;
44328;SDS011;30039;51.462;6.892;2023-07-29T10:39:57;1.92;;;1.10;;
44328;SDS011;30039;51.462;6.892;2023-07-29T10:42:59;2.13;;;1.00;;
44328;SDS011;30039;51.462;6.892;2023-07-29T10:45:45;1.63;;;1.00;;
44328;SDS011;30039;51.462;6.892;2023-07-29T10:51:24;1.40;;;1.00;;
44328;SDS011;30039;51.462;6.892;2023-07-29T10:54:14;3.03;;;1.30;;
44328;SDS011;30039;51.462;6.892;2023-07-29T10:57:01;2.10;;;1.25;;
44328;SDS011;30039;51.462;6.892;2023-07-29T10:59:56;2.58;;;1.23;;
44328;SDS011;30039;51.462;6.892;2023-07-29T11:02:42;3.20;;;1.42;;
44328;SDS011;30039;51.462;6.892;2023-07-29T11:05:41;2.25;;;1.38;;
44328;SDS011;30039;51.462;6.892;2023-07-29T11:08:30;2.85;;;1.25;;
44328;SDS011;30039;51.462;6.892;2023-07-29T11:11:16;3.22;;;1.52;;
44328;SDS011;30039;51.462;6.892;2023-07-29T11:14:02;2.22;;;1.20;;
44328;SDS011;30039;51.462;6.892;2023-07-29T11:16:48;2.60;;;1.40;;
44328;SDS011;30039;51.462;6.892;2023-07-29T11:19:34;1.80;;;1.05;;
44328;SDS011;30039;51.462;6.892;2023-07-29T11:22:20;2.15;;;1.10;;
44328;SDS011;30039;51.462;6.892;2023-07-29T11:25:10;2.60;;;1.02;;
44328;SDS011;30039;51.462;6.892;2023-07-29T11:27:57;1.70;;;1.15;;
44328;SDS011;30039;51.462;6.892;2023-07-29T11:30:43;1.45;;;1.17;;
44328;SDS011;30039;51.462;6.892;2023-07-29T11:33:28;2.25;;;1.23;;
44328;SDS011;30039;51.462;6.892;2023-07-29T11:36:18;2.10;;;1.20;;
44328;SDS011;30039;51.462;6.892;2023-07-29T11:39:09;1.70;;;1.10;;
44328;SDS011;30039;51.462;6.892;2023-07-29T11:41:54;1.75;;;1.30;;
44328;SDS011;30039;51.462;6.892;2023-07-29T11:44:40;2.85;;;1.50;;
44328;SDS011;30039;51.462;6.892;2023-07-29T11:47:26;2.78;;;1.50;;
44328;SDS011;30039;51.462;6.892;2023-07-29T11:50:12;2.72;;;1.50;;
44328;SDS011;30039;51.462;6.892;2023-07-29T11:53:01;2.97;;;1.30;;
44328;SDS011;30039;51.462;6.892;2023-07-29T11:55:50;1.65;;;1.20;;
44328;SDS011;30039;51.462;6.892;2023-07-29T11:58:36;3.20;;;1.40;;
44328;SDS011;30039;51.462;6.892;2023-07-29T12:01:22;2.38;;;1.27;;
44328;SDS011;30039;51.462;6.892;2023-07-29T12:04:08;4.53;;;1.70;;
44328;SDS011;30039;51.462;6.892;2023-07-29T12:06:53;1.83;;;1.00;;
44328;SDS011;30039;51.462;6.892;2023-07-29T12:09:39;1.83;;;1.40;;
44328;SDS011;30039;51.462;6.892;2023-07-29T12:12:25;2.67;;;1.50;;
44328;SDS011;30039;51.462;6.892;2023-07-29T12:15:10;3.97;;;1.75;;
44328;SDS011;30039;51.462;6.892;2023-07-29T12:17:56;3.70;;;1.13;;
44328;SDS011;30039;51.462;6.892;2023-07-29T12:20:42;1.60;;;1.20;;
44328;SDS011;30039;51.462;6.892;2023-07-29T12:23:29;2.75;;;1.25;;
44328;SDS011;30039;51.462;6.892;2023-07-29T12:26:15;3.20;;;1.50;;
44328;SDS011;30039;51.462;6.892;2023-07-29T12:29:10;2.13;;;1.27;;
44328;SDS011;30039;51.462;6.892;2023-07-29T12:31:57;2.20;;;1.35;;
44328;SDS011;30039;51.462;6.892;2023-07-29T12:34:43;2.33;;;1.42;;
44328;SDS011;30039;51.462;6.892;2023-07-29T12:37:32;1.60;;;1.20;;
44328;SDS011;30039;51.462;6.892;2023-07-29T12:40:25;4.10;;;1.60;;
44328;SDS011;30039;51.462;6.892;2023-07-29T12:43:10;2.50;;;1.58;;
44328;SDS011;30039;51.462;6.892;2023-07-29T12:45:56;3.08;;;1.30;;
44328;SDS011;30039;51.462;6.892;2023-07-29T12:48:42;2.25;;;1.30;;
44328;SDS011;30039;51.462;6.892;2023-07-29T12:51:28;3.42;;;1.40;;
44328;SDS011;30039;51.462;6.892;2023-07-29T12:54:13;1.80;;;1.10;;
44328;SDS011;30039;51.462;6.892;2023-07-29T12:56:59;1.85;;;1.02;;
44328;SDS011;30039;51.462;6.892;2023-07-29T12:59:45;2.55;;;1.40;;
44328;SDS011;30039;51.462;6.892;2023-07-29T13:02:31;3.13;;;1.40;;
44328;SDS011;30039;51.462;6.892;2023-07-29T13:05:17;2.75;;;1.20;;
44328;SDS011;30039;51.462;6.892;2023-07-29T13:08:03;1.73;;;1.10;;
44328;SDS011;30039;51.462;6.892;2023-07-29T13:10:49;1.35;;;1.13;;
44328;SDS011;30039;51.462;6.892;2023-07-29T13:13:34;2.13;;;1.42;;
44328;SDS011;30039;51.462;6.892;2023-07-29T13:16:20;2.60;;;1.20;;
44328;SDS011;30039;51.462;6.892;2023-07-29T13:19:05;2.17;;;1.23;;
44328;SDS011;30039;51.462;6.892;2023-07-29T13:21:51;2.58;;;1.23;;
44328;SDS011;30039;51.462;6.892;2023-07-29T13:24:37;1.85;;;1.20;;
44328;SDS011;30039;51.462;6.892;2023-07-29T13:27:22;2.80;;;1.38;;
44328;SDS011;30039;51.462;6.892;2023-07-29T13:30:09;1.85;;;1.08;;
44328;SDS011;30039;51.462;6.892;2023-07-29T13:32:55;2.17;;;1.38;;
44328;SDS011;30039;51.462;6.892;2023-07-29T13:35:40;1.90;;;1.30;;
44328;SDS011;30039;51.462;6.892;2023-07-29T13:38:26;3.63;;;1.30;;
44328;SDS011;30039;51.462;6.892;2023-07-29T13:41:11;2.20;;;1.35;;
44328;SDS011;30039;51.462;6.892;2023-07-29T13:43:57;3.20;;;1.35;;
44328;SDS011;30039;51.462;6.892;2023-07-29T13:46:43;1.98;;;1.48;;
44328;SDS011;30039;51.462;6.892;2023-07-29T13:49:28;2.08;;;1.33;;
44328;SDS011;30039;51.462;6.892;2023-07-29T13:52:14;1.67;;;1.10;;
44328;SDS011;30039;51.462;6.892;2023-07-29T13:54:59;2.05;;;1.50;;
44328;SDS011;30039;51.462;6.892;2023-07-29T13:57:45;2.63;;;1.73;;
44328;SDS011;30039;51.462;6.892;2023-07-29T14:00:30;3.03;;;1.65;;
44328;SDS011;30039;51.462;6.892;2023-07-29T14:03:16;2.33;;;1.42;;
44328;SDS011;30039;51.462;6.892;2023-07-29T14:06:02;3.75;;;1.50;;
44328;SDS011;30039;51.462;6.892;2023-07-29T14:08:47;2.50;;;1.70;;
44328;SDS011;30039;51.462;6.892;2023-07-29T14:11:33;4.22;;;1.70;;
44328;SDS011;30039;51.462;6.892;2023-07-29T14:14:19;4.15;;;1.90;;
44328;SDS011;30039;51.462;6.892;2023-07-29T14:17:05;1.65;;;1.08;;
44328;SDS011;30039;51.462;6.892;2023-07-29T14:19:50;1.27;;;0.80;;
44328;SDS011;30039;51.462;6.892;2023-07-29T14:22:36;1.90;;;1.13;;
44328;SDS011;30039;51.462;6.892;2023-07-29T14:25:21;1.95;;;0.95;;
44328;SDS011;30039;51.462;6.892;2023-07-29T14:28:07;2.55;;;1.08;;
44328;SDS011;30039;51.462;6.892;2023-07-29T14:30:53;1.75;;;0.98;;
44328;SDS011;30039;51.462;6.892;2023-07-29T14:33:38;4.03;;;1.33;;
44328;SDS011;30039;51.462;6.892;2023-07-29T14:36:24;2.25;;;1.13;;
44328;SDS011;30039;51.462;6.892;2023-07-29T14:39:09;2.42;;;1.20;;
44328;SDS011;30039;51.462;6.892;2023-07-29T14:41:55;1.80;;;1.02;;
44328;SDS011;30039;51.462;6.892;2023-07-29T14:44:41;2.70;;;1.40;;
44328;SDS011;30039;51.462;6.892;2023-07-29T14:47:26;3.00;;;1.60;;
44328;SDS011;30039;51.462;6.892;2023-07-29T14:50:12;2.40;;;1.17;;
44328;SDS011;30039;51.462;6.892;2023-07-29T14:52:58;4.57;;;2.25;;
44328;SDS011;30039;51.462;6.892;2023-07-29T14:55:43;3.15;;;1.52;;
44328;SDS011;30039;51.462;6.892;2023-07-29T14:58:29;2.40;;;1.30;;
44328;SDS011;30039;51.462;6.892;2023-07-29T15:01:14;8.15;;;1.90;;
44328;SDS011;30039;51.462;6.892;2023-07-29T15:04:00;7.15;;;1.83;;
44328;SDS011;30039;51.462;6.892;2023-07-29T15:06:45;4.53;;;1.95;;
44328;SDS011;30039;51.462;6.892;2023-07-29T15:09:31;4.78;;;1.73;;
44328;SDS011;30039;51.462;6.892;2023-07-29T15:12:16;2.67;;;1.48;;
44328;SDS011;30039;51.462;6.892;2023-07-29T15:15:02;3.50;;;1.55;;
44328;SDS011;30039;51.462;6.892;2023-07-29T15:17:48;3.70;;;1.48;;
44328;SDS011;30039;51.462;6.892;2023-07-29T15:20:33;2.72;;;1.58;;
44328;SDS011;30039;51.462;6.892;2023-07-29T15:23:19;4.65;;;1.73;;
44328;SDS011;30039;51.462;6.892;2023-07-29T15:26:05;2.42;;;1.45;;
44328;SDS011;30039;51.462;6.892;2023-07-29T15:28:50;4.00;;;2.08;;
44328;SDS011;30039;51.462;6.892;2023-07-29T15:31:36;4.10;;;1.70;;
44328;SDS011;30039;51.462;6.892;2023-07-29T15:34:21;3.50;;;2.00;;
44328;SDS011;30039;51.462;6.892;2023-07-29T15:37:10;5.45;;;2.53;;
44328;SDS011;30039;51.462;6.892;2023-07-29T15:39:56;5.63;;;2.75;;
44328;SDS011;30039;51.462;6.892;2023-07-29T15:42:42;4.13;;;2.20;;
44328;SDS011;30039;51.462;6.892;2023-07-29T15:45:27;9.85;;;3.00;;
44328;SDS011;30039;51.462;6.892;2023-07-29T15:48:13;5.18;;;2.40;;
44328;SDS011;30039;51.462;6.892;2023-07-29T15:50:59;4.65;;;2.90;;
44328;SDS011;30039;51.462;6.892;2023-07-29T15:53:44;4.78;;;2.30;;
44328;SDS011;30039;51.462;6.892;2023-07-29T15:56:30;4.78;;;2.72;;
44328;SDS011;30039;51.462;6.892;2023-07-29T15:59:16;4.10;;;1.90;;
44328;SDS011;30039;51.462;6.892;2023-07-29T16:02:01;3.78;;;1.80;;
44328;SDS011;30039;51.462;6.892;2023-07-29T16:04:47;4.40;;;1.90;;
44328;SDS011;30039;51.462;6.892;2023-07-29T16:07:33;3.28;;;1.90;;
44328;SDS011;30039;51.462;6.892;2023-07-29T16:10:19;3.42;;;1.75;;
44328;SDS011;30039;51.462;6.892;2023-07-29T16:13:04;3.30;;;2.15;;
44328;SDS011;30039;51.462;6.892;2023-07-29T16:15:51;3.17;;;1.67;;
44328;SDS011;30039;51.462;6.892;2023-07-29T16:18:36;2.63;;;1.73;;
44328;SDS011;30039;51.462;6.892;2023-07-29T16:21:22;4.20;;;2.15;;
44328;SDS011;30039;51.462;6.892;2023-07-29T16:24:07;3.92;;;1.95;;
44328;SDS011;30039;51.462;6.892;2023-07-29T16:26:53;2.63;;;1.55;;
44328;SDS011;30039;51.462;6.892;2023-07-29T16:29:39;2.08;;;1.60;;
44328;SDS011;30039;51.462;6.892;2023-07-29T16:32:24;2.97;;;1.42;;
44328;SDS011;30039;51.462;6.892;2023-07-29T16:35:10;2.83;;;1.60;;
44328;SDS011;30039;51.462;6.892;2023-07-29T16:37:55;2.55;;;1.60;;
44328;SDS011;30039;51.462;6.892;2023-07-29T16:40:42;2.30;;;1.50;;
44328;SDS011;30039;51.462;6.892;2023-07-29T16:43:28;4.00;;;1.70;;
44328;SDS011;30039;51.462;6.892;2023-07-29T16:46:14;2.97;;;1.95;;
44328;SDS011;30039;51.462;6.892;2023-07-29T16:48:59;4.05;;;2.13;;
44328;SDS011;30039;51.462;6.892;2023-07-29T16:51:45;2.55;;;1.77;;